Latest Weather Observations for Kingaroy

IDQ60801

Issued at 1:02 pm EST Tuesday 3 March 2015 (issued every 30 minutes, with the page automatically refreshed every 10 minutes)

About weather observations | Map of weather stations | Latest weather observations for QLD | Other Formats
Station Details ID: 040922 Name: KINGAROY AIRPORT Lat: -26.57 Lon: 151.84 Height: 433.67 m
Data from the previous 72 hours. | See also: Recent months at Kingaroy
Date/Time
EST
Temp
°C
App
Temp
°C
Dew
Point
Rel
Hum
%
Delta-T
°C
Wind Press
QNH
hPa
Press
MSL
hPa
Rain
since 9 am
mm
Dir
 
Spd
km/h
Gust
km/h
Spd
kts
Gust
kts
03/01:00pm 27.3 26.9 16.3 51 6.9 SSE 13 20 7 11 1015.7 1013.6 0.0
03/12:30pm 27.7 27.3 17.2 52 6.7 ESE 15 20 8 11 1016.2 1014.2 0.0
03/12:00pm 26.8 26.6 16.7 54 6.4 SE 13 26 7 14 1016.7 1014.6 0.0
03/11:30am 25.7 24.7 15.7 54 6.2 ESE 15 26 8 14 1017.1 1015.0 0.0
03/11:00am 25.1 24.1 15.7 56 5.8 SE 15 28 8 15 1017.5 1015.4 0.0
03/10:30am 26.1 26.0 16.9 57 5.8 SE 13 19 7 10 1017.7 1015.6 0.0
03/10:00am 25.9 26.0 17.5 59 5.3 SE 13 20 7 11 1017.8 1015.7 0.0
03/09:30am 24.6 25.0 17.3 64 4.6 SE 11 17 6 9 1017.6 1015.5 0.0
03/09:00am 23.8 23.8 17.3 67 4.1 ESE 13 20 7 11 1017.5 1015.4 0.0
03/08:30am 23.4 22.9 17.8 71 3.6 ESE 17 24 9 13 1017.4 1015.3 0.0
03/08:00am 22.2 22.6 17.3 74 3.1 ESE 11 20 6 11 1017.2 1015.1 0.0
03/07:30am 21.9 22.7 18.1 79 2.4 SE 11 19 6 10 1017.1 1015.0 0.0
03/07:00am 20.9 22.3 18.7 87 1.4 SE 9 17 5 9 1016.8 1014.7 0.0
03/06:30am 19.6 21.2 18.3 92 0.8 S 7 11 4 6 1016.6 1014.5 0.0
03/06:00am 18.9 19.7 17.4 91 0.9 SSE 9 13 5 7 1016.2 1014.2 0.0
03/05:30am 19.3 19.9 17.8 91 0.9 SSE 11 19 6 10 1015.9 1013.8 0.0
03/05:00am 19.5 20.2 18.0 91 0.9 SSE 11 17 6 9 1015.8 1013.7 0.0
03/04:30am 19.5 20.5 17.8 90 1.1 SE 9 13 5 7 1015.7 1013.6 0.0
03/04:00am 20.0 20.7 18.0 88 1.3 SE 11 15 6 8 1015.5 1013.4 0.0
03/03:30am 20.2 20.9 18.0 87 1.4 SE 11 17 6 9 1015.3 1013.2 0.0
03/03:00am 20.1 20.4 18.0 88 1.3 SE 13 20 7 11 1015.3 1013.2 0.0
03/02:30am 20.2 21.0 18.1 88 1.3 SE 11 24 6 13 1015.4 1013.3 0.0
03/02:00am 19.7 20.7 17.7 88 1.3 SE 9 15 5 8 1015.5 1013.4 0.0
03/01:30am 20.0 20.3 18.0 88 1.3 ESE 13 20 7 11 1015.6 1013.5 0.0
03/01:00am 19.8 20.4 17.8 88 1.3 ESE 11 17 6 9 1016.0 1013.9 0.0
03/12:30am 20.3 19.8 17.9 86 1.5 ESE 17 28 9 15 1016.4 1014.3 0.0
03/12:00am 20.4 21.2 18.2 87 1.4 ESE 11 19 6 10 1016.5 1014.4 0.0
 
Date/Time
EST
Temp
°C
App
Temp
°C
Dew
Point
Rel
Hum
%
Delta-T
°C
Wind Press
QNH
hPa
Press
MSL
hPa
Rain
since 9 am
mm
Dir
 
Spd
km/h
Gust
km/h
Spd
kts
Gust
kts
02/11:30pm 20.7 20.9 18.5 87 1.4 ESE 15 24 8 13 1016.5 1014.4 0.0
02/11:00pm 20.7 20.4 18.3 86 1.5 ESE 17 26 9 14 1016.4 1014.3 0.0
02/10:30pm 20.9 20.6 18.3 85 1.6 ESE 17 28 9 15 1016.5 1014.4 0.0
02/10:00pm 20.8 21.5 18.0 84 1.8 ESE 11 20 6 11 1016.6 1014.5 0.0
02/09:30pm 21.0 21.3 17.8 82 2.0 ESE 13 17 7 9 1016.5 1014.4 0.0
02/09:00pm 21.2 21.5 18.0 82 2.0 E 13 19 7 10 1016.4 1014.3 0.0
02/08:30pm 21.9 21.5 18.1 79 2.4 E 17 22 9 12 1016.0 1013.9 0.0
02/08:00pm 22.3 22.4 18.3 78 2.5 ESE 15 20 8 11 1015.6 1013.5 0.0
02/07:30pm 22.6 23.1 18.4 77 2.7 ESE 13 20 7 11 1015.2 1013.1 0.0
02/07:00pm 23.4 23.2 18.5 74 3.1 ESE 17 26 9 14 1014.7 1012.6 0.0
02/06:30pm 24.7 24.2 18.6 69 3.9 ESE 19 32 10 17 1014.1 1012.0 0.0
02/06:00pm 25.8 25.8 19.0 66 4.4 ESE 17 26 9 14 1013.5 1011.4 0.0
02/05:30pm 26.9 26.5 19.0 62 5.2 ESE 19 30 10 16 1013.0 1010.9 0.0
02/05:00pm 27.7 27.2 19.2 60 5.6 ESE 20 32 11 17 1012.5 1010.4 0.0
02/04:30pm 28.5 28.3 19.7 59 5.8 ESE 20 32 11 17 1012.4 1010.3 0.0
02/04:00pm 29.6 29.8 19.3 54 6.8 ESE 17 24 9 13 1012.1 1010.0 0.0
02/03:30pm 29.6 29.4 18.4 51 7.3 ESE 17 26 9 14 1012.0 1009.9 0.0
02/03:00pm 30.2 31.0 19.9 54 6.9 SE 15 24 8 13 1012.1 1010.0 0.0
02/02:30pm 29.6 29.6 18.1 50 7.5 ESE 15 22 8 12 1012.4 1010.3 0.0
02/02:00pm 29.6 29.9 19.6 55 6.6 SE 17 24 9 13 1012.6 1010.5 0.0
02/01:30pm 28.8 29.0 19.4 56 6.2 ESE 17 28 9 15 1013.0 1010.9 0.0
02/01:00pm 29.2 29.7 20.9 61 5.6 E 19 26 10 14 1013.3 1011.2 0.0
02/12:30pm 28.0 28.6 20.3 63 5.1 ESE 17 26 9 14 1014.0 1011.8 0.0
02/12:00pm 28.6 29.4 21.4 65 4.9 ESE 19 28 10 15 1014.2 1012.1 0.0
02/11:30am 28.3 28.8 20.1 61 5.5 ESE 17 28 9 15 1014.4 1012.3 0.0
02/11:00am 27.4 28.5 19.7 63 5.1 ESE 13 20 7 11 1014.7 1012.6 0.0
02/10:30am 26.1 27.0 19.2 65 4.5 SE 13 19 7 10 1015.0 1012.9 0.0
02/10:00am 26.6 28.0 20.4 69 4.1 SE 13 17 7 9 1015.0 1012.9 0.0
02/09:30am 25.1 26.0 19.2 70 3.8 SE 13 20 7 11 1015.1 1013.0 0.0
02/09:00am 23.9 25.1 19.8 78 2.7 SE 13 20 7 11 1015.2 1013.1 0.0
02/08:30am 22.7 23.4 19.7 83 2.0 ESE 15 24 8 13 1015.4 1013.3 0.0
02/08:00am 22.8 23.7 20.0 84 1.8 SE 15 20 8 11 1014.9 1012.8 0.0
02/07:30am 22.2 24.2 19.9 87 1.5 SE 9 13 5 7 1014.6 1012.5 0.0
02/07:00am 22.1 23.9 19.5 85 1.7 SE 9 15 5 8 1014.2 1012.1 0.0
02/06:30am 22.0 24.2 19.7 87 1.5 SSE 7 9 4 5 1013.7 1011.6 0.0
02/06:00am 21.8 24.9 19.5 87 1.5 NNE 2 7 1 4 1013.1 1011.0 0.0
02/05:30am 21.8 25.3 19.5 87 1.5 CALM 0 0 0 0 1012.7 1010.6 0.0
02/05:00am 21.8 24.9 19.4 86 1.6 WSW 2 6 1 3 1012.6 1010.5 0.0
02/04:30am 21.8 25.4 19.7 88 1.4 CALM 0 0 0 0 1012.3 1010.2 0.0
02/04:00am 21.7 24.0 19.8 89 1.2 ESE 7 9 4 5 1012.2 1010.1 0.0
02/03:30am 21.8 23.8 19.9 89 1.2 E 9 13 5 7 1012.0 1009.9 0.0
02/03:00am 21.9 24.5 20.0 89 1.2 ESE 6 7 3 4 1012.0 1009.9 0.0
02/02:30am 21.9 24.3 20.0 89 1.2 E 7 9 4 5 1011.6 1009.4 0.0
02/02:00am 21.9 24.4 20.2 90 1.1 NNE 7 9 4 5 1011.8 1009.6 0.0
02/01:30am 22.0 25.7 19.9 88 1.4 CALM 0 6 0 3 1011.8 1009.6 0.0
02/01:00am 21.9 24.2 19.8 88 1.4 NNE 7 11 4 6 1011.8 1009.6 0.0
02/12:30am 22.0 24.1 20.1 89 1.2 NNE 9 15 5 8 1012.0 1009.9 0.0
02/12:00am 22.0 24.3 19.9 88 1.4 NNE 7 9 4 5 1012.4 1010.3 0.0
 
Date/Time
EST
Temp
°C
App
Temp
°C
Dew
Point
Rel
Hum
%
Delta-T
°C
Wind Press
QNH
hPa
Press
MSL
hPa
Rain
since 9 am
mm
Dir
 
Spd
km/h
Gust
km/h
Spd
kts
Gust
kts
01/11:30pm 22.0 24.3 19.9 88 1.4 ENE 7 11 4 6 1012.6 1010.5 0.0
01/11:00pm 22.2 24.8 20.1 88 1.4 NNE 6 11 3 6 1012.2 1010.1 0.0
01/10:30pm 22.5 25.0 20.2 87 1.5 NNE 7 11 4 6 1012.3 1010.2 0.0
01/10:00pm 22.9 26.0 20.2 85 1.8 NNE 4 11 2 6 1012.3 1010.2 0.0
01/09:30pm 23.4 25.5 20.1 82 2.2 ENE 9 17 5 9 1012.1 1010.0 0.0
01/09:00pm 23.9 25.9 20.0 79 2.6 ENE 9 19 5 10 1011.7 1009.5 0.0
01/08:30pm 24.5 26.2 18.4 69 3.9 NE 7 13 4 7 1011.5 1009.3 0.0
01/08:00pm 24.9 26.6 18.6 68 4.1 ENE 7 11 4 6 1010.9 1008.8 0.0
01/07:30pm 24.6 27.5 19.0 71 3.6 NE 2 7 1 4 1010.3 1008.2 0.0
01/07:00pm 25.7 27.8 18.9 66 4.4 NE 6 7 3 4 1010.0 1007.9 0.0
01/06:30pm 26.9 28.9 18.7 60 5.3 NE 6 7 3 4 1009.7 1007.5 0.0
01/06:00pm 28.7 30.3 18.2 53 6.8 ENE 7 11 4 6 1009.6 1007.4 0.0
01/05:30pm 29.5 30.5 17.7 49 7.6 ENE 9 15 5 8 1009.4 1007.2 0.0
01/05:00pm 29.5 30.9 17.3 47 7.9 ENE 6 9 3 5 1009.3 1007.1 0.0
01/04:30pm 29.5 30.3 16.3 45 8.4 E 7 11 4 6 1009.2 1007.0 0.0
01/04:00pm 30.9 32.3 17.9 45 8.5 NNW 7 11 4 6 1009.3 1007.1 0.0
01/03:30pm 30.3 31.4 17.0 44 8.5 WSW 7 13 4 7 1009.6 1007.4 0.0
01/03:00pm 30.4 31.9 18.8 50 7.6 WNW 9 13 5 7 1009.8 1007.6 0.0
01/02:30pm 30.0 30.3 16.1 43 8.8 W 9 13 5 7 1010.0 1007.9 0.0
01/02:00pm 29.8 29.7 16.9 45 8.3 WNW 13 19 7 10 1010.3 1008.2 0.0
01/01:30pm 29.3 30.6 18.4 51 7.1 WNW 9 15 5 8 1010.6 1008.5 0.0
01/01:00pm 28.5 28.5 17.1 50 7.3 WNW 13 20 7 11 1011.0 1008.9 0.0
01/12:30pm 28.2 29.3 18.0 54 6.6 WNW 9 19 5 10 1011.5 1009.3 0.0
01/12:00pm 27.9 28.0 17.4 52 6.7 WNW 13 20 7 11 1011.9 1009.7 0.0
01/11:30am 27.4 28.5 18.1 57 6.0 WNW 9 15 5 8 1012.1 1010.0 0.0
01/11:00am 27.5 29.1 18.2 57 6.0 NNE 7 15 4 8 1012.6 1010.5 0.0
01/10:30am 26.4 27.6 18.3 61 5.2 N 9 13 5 7 1013.1 1011.0 0.0
01/10:00am 26.2 28.0 18.3 61 5.1 N 6 19 3 10 1013.2 1011.1 0.0
01/09:30am 25.0 25.6 17.7 64 4.7 N 11 15 6 8 1013.3 1010.9 0.0
01/09:00am 24.4 26.0 18.3 69 3.9 NNE 7 11 4 6 1013.2 1010.8 0.0
01/08:30am 23.7 25.0 18.4 72 3.4 NE 9 13 5 7 1013.2 1010.8 0.0
01/08:00am 22.4 24.2 18.2 77 2.7 ENE 6 11 3 6 1012.9 1010.5 0.0
01/07:30am 21.7 23.8 19.3 86 1.5 ENE 7 11 4 6 1012.7 1010.3 0.0
01/07:00am 21.0 23.0 18.8 87 1.4 E 6 9 3 5 1012.6 1010.2 0.0
01/06:30am 19.4 21.1 18.4 94 0.6 S 7 9 4 5 1012.5 1010.0 0.0
01/06:00am 18.3 20.8 17.3 94 0.6 CALM 0 0 0 0 1012.1 1009.6 0.0
01/05:30am 18.2 19.4 16.9 92 0.8 E 6 7 3 4 1011.8 1009.3 0.0
01/05:00am 19.0 21.7 17.7 92 0.8 CALM 0 0 0 0 1011.8 1009.3 0.0
01/04:30am 20.2 23.1 18.3 89 1.2 CALM 0 0 0 0 1011.7 1009.2 0.0
01/04:00am 20.7 23.9 18.8 89 1.2 CALM 0 4 0 2 1011.8 1009.3 0.0
01/03:30am 20.8 23.9 18.7 88 1.3 CALM 0 0 0 0 1011.7 1009.2 0.0
01/03:00am 20.8 24.0 18.9 89 1.2 CALM 0 0 0 0 1011.6 1009.1 0.0
01/02:30am 20.6 23.9 19.1 91 1.0 CALM 0 0 0 0 1011.5 1009.0 0.0
01/02:00am 20.5 23.5 19.2 92 0.8 NE 2 6 1 3 1011.7 1009.2 0.0
01/01:30am 20.5 23.8 19.0 91 1.0 CALM 0 0 0 0 1012.0 1009.5 0.0
01/01:00am 20.4 23.6 18.9 91 1.0 CALM 0 0 0 0 1012.2 1009.7 0.0
01/12:30am 20.5 23.7 18.8 90 1.1 CALM 0 0 0 0 1012.6 1010.2 0.0
01/12:00am 20.5 23.2 18.6 89 1.2 ENE 2 7 1 4 1012.9 1010.5 0.0
 
Date/Time
EST
Temp
°C
App
Temp
°C
Dew
Point
Rel
Hum
%
Delta-T
°C
Wind Press
QNH
hPa
Press
MSL
hPa
Rain
since 9 am
mm
Dir
 
Spd
km/h
Gust
km/h
Spd
kts
Gust
kts
28/11:30pm 20.6 22.9 18.5 88 1.3 ENE 4 7 2 4 1012.9 1010.5 0.0
28/11:00pm 20.9 23.2 18.5 86 1.5 ENE 4 9 2 5 1012.8 1010.4 0.0
28/10:30pm 21.2 23.0 18.4 84 1.8 ENE 6 9 3 5 1013.1 1010.7 0.0
28/10:00pm 21.4 24.0 18.4 83 1.9 ESE 2 13 1 7 1013.0 1010.6 0.0
28/09:30pm 21.7 22.3 18.7 83 1.9 E 13 20 7 11 1012.6 1010.2 0.0
28/09:00pm 22.3 22.9 18.7 80 2.3 E 13 19 7 10 1012.5 1010.0 0.0
28/08:30pm 22.7 23.3 18.7 78 2.6 ENE 13 20 7 11 1012.3 1009.8 0.0
28/08:00pm 23.3 23.5 18.6 75 3.0 ENE 15 24 8 13 1012.0 1009.5 0.0
28/07:30pm 23.9 24.8 19.2 75 3.1 ENE 13 22 7 12 1011.6 1009.1 0.0
28/07:00pm 24.4 25.8 19.5 74 3.2 ENE 11 20 6 11 1011.0 1008.6 0.0
28/06:30pm 24.4 25.9 18.8 71 3.6 E 9 11 5 6 1010.6 1008.2 0.0
28/06:00pm 25.3 26.5 18.2 64 4.6 ENE 9 15 5 8 1010.4 1007.9 0.0
28/05:30pm 26.2 27.3 18.1 61 5.2 ENE 9 15 5 8 1010.2 1007.7 0.0
28/05:00pm 26.5 27.7 19.1 64 4.8 ENE 11 17 6 9 1009.9 1007.4 0.0
28/04:30pm 26.7 26.6 18.8 62 5.1 ENE 17 28 9 15 1009.7 1007.2 0.0
28/04:00pm 29.2 30.2 18.6 52 6.9 NE 11 19 6 10 1009.6 1007.1 0.0
28/03:30pm 30.2 30.8 17.6 46 8.1 E 11 17 6 9 1009.5 1007.0 0.0
28/03:00pm 30.3 31.4 18.1 48 8.0 E 9 15 5 8 1009.6 1007.1 0.0
28/02:30pm 30.3 32.1 18.4 49 7.8 SE 6 9 3 5 1009.8 1007.3 0.0
28/02:00pm 29.6 31.0 18.7 52 7.2 ENE 9 15 5 8 1010.2 1007.7 0.0
28/01:30pm 28.5 30.1 18.3 54 6.6 NE 7 11 4 6 1010.9 1008.5 0.0

Other Formats:

Comma delimited format used in spreadsheet applications
http://www.bom.gov.au/fwo/IDQ60801/IDQ60801.94549.axf

JavaScript Object Notation format (JSON) in row-major order
http://www.bom.gov.au/fwo/IDQ60801/IDQ60801.94549.json